Aviation Digital Data Service (ADDS)

Output produced by TAFs form (0841 UTC 24 September 2017)
found at http://aviationweather.gov/adds/tafs/
 
KROW 240806Z 2408/2506 19011KT P6SM SCT009 
     FM240930 17008KT 5SM BR BKN009 
     FM241500 19010KT P6SM SCT050 
     FM242200 16015KT P6SM SCT070 
     FM250300 16011KT P6SM VCTS BKN040CB